createdAt,value
2023-05-15T00:01:25.358Z,1.95
2023-05-15T00:06:31.166Z,1.90
2023-05-15T00:11:36.624Z,1.98
2023-05-15T00:16:42.354Z,1.55
2023-05-15T00:21:47.919Z,1.40
2023-05-15T00:26:53.445Z,1.80
2023-05-15T00:31:59.105Z,1.42
2023-05-15T00:37:04.924Z,1.80
2023-05-15T00:42:11.034Z,1.65
2023-05-15T00:47:17.356Z,1.33
2023-05-15T00:52:23.836Z,2.45
2023-05-15T00:57:29.867Z,1.50
2023-05-15T01:02:35.574Z,1.75
2023-05-15T01:08:15.641Z,1.33
2023-05-15T01:13:23.532Z,1.58
2023-05-15T01:18:35.119Z,1.90
2023-05-15T01:24:00.388Z,2.00
2023-05-15T01:29:17.024Z,1.70
2023-05-15T01:34:31.507Z,2.00
2023-05-15T01:39:39.808Z,2.20
2023-05-15T01:44:56.493Z,1.75
2023-05-15T01:50:04.860Z,2.13
2023-05-15T01:55:11.880Z,1.85
2023-05-15T02:00:18.496Z,2.40
2023-05-15T02:05:24.861Z,2.50
2023-05-15T02:10:32.777Z,2.17
2023-05-15T02:15:39.445Z,2.30
2023-05-15T02:20:45.481Z,1.67
2023-05-15T02:26:16.317Z,1.88
2023-05-15T02:32:04.670Z,2.30
2023-05-15T02:37:14.760Z,2.00
2023-05-15T02:42:21.982Z,1.85
2023-05-15T02:47:28.461Z,1.58
2023-05-15T02:52:36.357Z,1.67
2023-05-15T02:57:42.031Z,1.83
2023-05-15T03:02:47.496Z,1.55
2023-05-15T03:07:53.099Z,1.83
2023-05-15T03:12:58.883Z,1.45
2023-05-15T03:18:04.424Z,1.35
2023-05-15T03:23:09.897Z,1.73
2023-05-15T03:28:15.504Z,1.52
2023-05-15T03:33:21.206Z,1.85
2023-05-15T03:38:27.101Z,1.45
2023-05-15T03:43:32.843Z,1.35
2023-05-15T03:48:38.356Z,1.63
2023-05-15T03:53:44.662Z,2.20
2023-05-15T03:58:50.297Z,3.28
2023-05-15T04:03:55.671Z,3.08
2023-05-15T04:08:59.864Z,3.35
2023-05-15T04:14:05.285Z,3.08
2023-05-15T04:19:11.127Z,3.80
2023-05-15T04:24:16.251Z,3.33
2023-05-15T04:29:20.364Z,3.42
2023-05-15T04:34:26.057Z,3.47
2023-05-15T04:39:34.123Z,3.60
2023-05-15T04:44:38.875Z,4.57
2023-05-15T04:49:43.460Z,3.75
2023-05-15T04:54:50.535Z,3.25
2023-05-15T04:59:57.949Z,3.42
2023-05-15T05:05:03.988Z,4.63
2023-05-15T05:10:10.060Z,3.88
2023-05-15T05:15:16.322Z,3.22
2023-05-15T05:20:20.505Z,3.95
2023-05-15T05:25:26.445Z,3.45
2023-05-15T05:30:43.366Z,3.88
2023-05-15T05:35:50.393Z,3.78
2023-05-15T05:40:54.737Z,3.67
2023-05-15T05:45:59.160Z,4.68
2023-05-15T05:51:03.383Z,4.57
2023-05-15T05:56:07.871Z,4.20
2023-05-15T06:01:12.147Z,3.65
2023-05-15T06:06:16.345Z,3.15
2023-05-15T06:11:20.537Z,3.00
2023-05-15T06:16:27.628Z,2.13
2023-05-15T06:21:33.512Z,1.77
2023-05-15T06:26:39.287Z,1.83
2023-05-15T06:31:44.515Z,1.45
2023-05-15T06:42:33.631Z,1.73
2023-05-15T06:47:37.802Z,1.83
2023-05-15T06:52:41.974Z,1.10
2023-05-15T06:57:46.051Z,1.25
2023-05-15T07:02:50.455Z,1.17
2023-05-15T07:07:57.913Z,1.35
2023-05-15T07:13:02.104Z,1.58
2023-05-15T07:18:07.287Z,1.25
2023-05-15T07:23:11.591Z,1.40
2023-05-15T07:28:15.907Z,1.38
2023-05-15T07:33:20.357Z,1.35
2023-05-15T07:38:24.593Z,1.70
2023-05-15T07:43:28.876Z,1.55
2023-05-15T07:48:33.155Z,1.63
2023-05-15T07:53:37.379Z,1.33
2023-05-15T07:58:41.647Z,1.65
2023-05-15T08:03:46.534Z,1.42
2023-05-15T08:08:50.771Z,1.88
2023-05-15T08:13:55.287Z,1.63
2023-05-15T08:19:02.132Z,1.63
2023-05-15T08:24:07.154Z,1.15
2023-05-15T08:29:12.135Z,1.15
2023-05-15T08:34:16.347Z,1.48
2023-05-15T08:39:20.452Z,1.75
2023-05-15T08:44:25.168Z,1.33
2023-05-15T08:50:07.071Z,0.82
2023-05-15T08:55:12.273Z,1.33
2023-05-15T09:00:18.526Z,1.70
2023-05-15T09:05:22.880Z,1.50
2023-05-15T09:10:27.061Z,1.98
2023-05-15T09:15:31.567Z,1.27
2023-05-15T09:20:37.603Z,1.52
2023-05-15T09:25:45.679Z,1.60
2023-05-15T09:30:49.986Z,1.35
2023-05-15T09:35:54.126Z,1.50
2023-05-15T09:41:07.436Z,1.55
2023-05-15T09:46:13.602Z,1.25
2023-05-15T09:51:20.116Z,1.45
2023-05-15T10:01:29.113Z,1.55
2023-05-15T10:06:43.040Z,1.40
2023-05-15T10:11:54.976Z,1.33
2023-05-15T10:16:59.046Z,1.65
2023-05-15T10:22:03.911Z,1.35
2023-05-15T10:27:10.690Z,1.40
2023-05-15T10:32:15.640Z,1.33
2023-05-15T10:37:20.495Z,1.83
2023-05-15T10:42:29.003Z,1.13
2023-05-15T10:47:34.240Z,1.17
2023-05-15T10:52:40.413Z,0.90
2023-05-15T10:57:47.736Z,0.95
2023-05-15T11:02:57.442Z,1.02
2023-05-15T11:08:19.284Z,1.30
2023-05-15T11:13:23.508Z,1.13
2023-05-15T11:18:27.734Z,0.98
2023-05-15T11:23:41.204Z,1.10
2023-05-15T11:28:46.315Z,0.93
2023-05-15T11:33:52.465Z,1.17
2023-05-15T11:38:57.169Z,0.77
2023-05-15T11:44:02.313Z,0.85
2023-05-15T11:49:06.781Z,1.10
2023-05-15T11:54:12.594Z,1.05
2023-05-15T11:59:16.644Z,0.90
2023-05-15T12:04:21.260Z,1.13
2023-05-15T12:09:28.048Z,0.93
2023-05-15T12:14:34.209Z,0.85
2023-05-15T12:19:39.555Z,0.90
2023-05-15T12:24:43.791Z,0.65
2023-05-15T12:29:47.903Z,0.85
2023-05-15T12:34:52.300Z,0.73
2023-05-15T12:40:00.727Z,1.02
2023-05-15T12:45:23.682Z,1.02
2023-05-15T12:50:32.196Z,1.00
2023-05-15T12:55:37.809Z,1.02
2023-05-15T13:05:49.811Z,2.30
2023-05-15T13:10:59.270Z,0.75
2023-05-15T13:16:03.726Z,1.05
2023-05-15T13:21:07.961Z,0.55
2023-05-15T13:26:12.191Z,0.68
2023-05-15T13:31:17.779Z,0.80
2023-05-15T13:36:22.035Z,0.93
2023-05-15T13:41:27.078Z,1.00
2023-05-15T13:46:33.116Z,1.15
2023-05-15T13:51:37.536Z,1.05
2023-05-15T13:56:41.986Z,0.98
2023-05-15T14:01:48.477Z,0.77
2023-05-15T14:06:54.297Z,0.93
2023-05-15T14:12:00.031Z,1.05
2023-05-15T14:17:06.007Z,1.02
2023-05-15T14:22:11.888Z,1.83
2023-05-15T14:27:17.850Z,1.02
2023-05-15T14:32:24.440Z,1.00
2023-05-15T14:37:29.893Z,0.93
2023-05-15T14:42:35.358Z,1.75
2023-05-15T14:47:41.033Z,1.02
2023-05-15T14:52:47.266Z,0.73
2023-05-15T14:57:52.981Z,1.25
2023-05-15T15:02:58.523Z,1.15
2023-05-15T15:08:07.617Z,0.93
2023-05-15T15:13:14.742Z,1.33
2023-05-15T15:18:21.608Z,1.05
2023-05-15T15:23:28.538Z,1.13
2023-05-15T15:28:37.288Z,1.35
2023-05-15T15:33:42.943Z,1.05
2023-05-15T15:38:48.466Z,0.95
2023-05-15T15:43:54.479Z,1.05
2023-05-15T15:48:59.548Z,0.85
2023-05-15T15:54:05.157Z,1.50
2023-05-15T15:59:11.186Z,1.10
2023-05-15T16:04:17.020Z,1.05
2023-05-15T16:09:22.580Z,1.75
2023-05-15T16:14:28.551Z,1.20
2023-05-15T16:19:35.123Z,0.75
2023-05-15T16:24:41.401Z,1.08
2023-05-15T16:29:46.740Z,1.02
2023-05-15T16:34:52.407Z,1.05
2023-05-15T16:39:58.018Z,0.60
2023-05-15T16:45:04.234Z,0.82
2023-05-15T16:50:10.537Z,1.35
2023-05-15T16:55:18.757Z,0.73
2023-05-15T17:00:25.635Z,1.05
2023-05-15T17:05:31.791Z,0.90
2023-05-15T17:10:37.605Z,1.80
2023-05-15T17:15:43.499Z,1.30
2023-05-15T17:20:49.174Z,1.15
2023-05-15T17:25:54.645Z,0.90
2023-05-15T17:31:00.882Z,1.15
2023-05-15T17:36:06.926Z,1.15
2023-05-15T17:41:12.516Z,1.10
2023-05-15T17:46:18.038Z,0.98
2023-05-15T17:51:23.716Z,0.82
2023-05-15T17:56:29.149Z,1.05
2023-05-15T18:01:34.447Z,1.50
2023-05-15T18:06:40.065Z,1.27
2023-05-15T18:11:45.617Z,0.95
2023-05-15T18:16:51.662Z,0.93
2023-05-15T18:21:58.123Z,0.98
2023-05-15T18:27:04.489Z,0.98
2023-05-15T18:32:11.044Z,0.95
2023-05-15T18:37:16.443Z,1.20
2023-05-15T18:42:21.943Z,0.98
2023-05-15T18:47:27.611Z,1.08
2023-05-15T18:52:33.418Z,1.05
2023-05-15T18:57:39.471Z,1.10
2023-05-15T19:02:45.442Z,1.05
2023-05-15T19:07:51.100Z,0.82
2023-05-15T19:12:58.057Z,1.13
2023-05-15T19:18:03.685Z,0.47
2023-05-15T19:23:10.251Z,0.98
2023-05-15T19:28:16.043Z,0.85
2023-05-15T19:33:21.502Z,0.95
2023-05-15T19:38:27.126Z,0.95
2023-05-15T19:43:39.677Z,0.95
2023-05-15T19:48:45.315Z,0.98
2023-05-15T19:53:50.902Z,0.82
2023-05-15T19:58:56.343Z,0.93
2023-05-15T20:04:01.957Z,1.05
2023-05-15T20:09:07.546Z,0.82
2023-05-15T20:14:13.878Z,1.33
2023-05-15T20:19:25.723Z,0.98
2023-05-15T20:24:32.982Z,0.68
2023-05-15T20:29:39.719Z,0.70
2023-05-15T20:34:46.264Z,0.63
2023-05-15T20:39:52.155Z,1.17
2023-05-15T20:44:57.908Z,0.63
2023-05-15T20:50:03.788Z,0.90
2023-05-15T20:55:20.793Z,1.15
2023-05-15T21:00:27.319Z,0.73
2023-05-15T21:05:33.186Z,0.82
2023-05-15T21:10:38.737Z,0.70
2023-05-15T21:15:44.506Z,0.70
2023-05-15T21:20:49.919Z,0.88
2023-05-15T21:25:55.363Z,0.82
2023-05-15T21:31:08.308Z,0.57
2023-05-15T21:36:13.912Z,0.82
2023-05-15T21:41:20.248Z,0.90
2023-05-15T21:46:25.872Z,0.63
2023-05-15T21:51:31.511Z,0.60
2023-05-15T21:56:37.108Z,0.57
2023-05-15T22:01:42.797Z,0.50
2023-05-15T22:06:49.316Z,0.75
2023-05-15T22:11:54.916Z,0.60
2023-05-15T22:17:00.467Z,0.52
2023-05-15T22:22:06.262Z,0.63
2023-05-15T22:27:11.744Z,0.77
2023-05-15T22:32:17.378Z,0.60
2023-05-15T22:37:23.141Z,0.70
2023-05-15T22:42:29.317Z,0.80
2023-05-15T22:47:35.124Z,0.70
2023-05-15T22:52:40.877Z,0.88
2023-05-15T22:57:46.498Z,0.70
2023-05-15T23:02:57.994Z,1.00
2023-05-15T23:08:03.968Z,0.93
2023-05-15T23:13:09.726Z,1.30
2023-05-15T23:18:15.347Z,1.08
2023-05-15T23:23:20.902Z,1.10
2023-05-15T23:28:26.646Z,1.23
2023-05-15T23:33:32.098Z,1.73
2023-05-15T23:38:37.018Z,1.30
2023-05-15T23:43:42.915Z,1.15
2023-05-15T23:48:48.434Z,1.33
2023-05-15T23:53:54.318Z,1.00
2023-05-15T23:59:00.294Z,1.10
